sensor_id;sensor_type;location;lat;lon;timestamp;temperature;humidity
46378;DHT22;32083;47.360;9.650;2023-07-20T00:01:58;22.70;90.90
46378;DHT22;32083;47.360;9.650;2023-07-20T00:04:24;22.70;90.90
46378;DHT22;32083;47.360;9.650;2023-07-20T00:06:50;22.60;91.10
46378;DHT22;32083;47.360;9.650;2023-07-20T00:09:15;22.70;91.10
46378;DHT22;32083;47.360;9.650;2023-07-20T00:11:49;22.60;91.30
46378;DHT22;32083;47.360;9.650;2023-07-20T00:14:18;22.60;91.70
46378;DHT22;32083;47.360;9.650;2023-07-20T00:16:49;22.60;91.40
46378;DHT22;32083;47.360;9.650;2023-07-20T00:19:24;22.60;91.70
46378;DHT22;32083;47.360;9.650;2023-07-20T00:21:50;22.50;91.20
46378;DHT22;32083;47.360;9.650;2023-07-20T00:24:15;22.50;91.20
46378;DHT22;32083;47.360;9.650;2023-07-20T00:26:41;22.50;91.20
46378;DHT22;32083;47.360;9.650;2023-07-20T00:29:06;22.50;91.40
46378;DHT22;32083;47.360;9.650;2023-07-20T00:31:32;22.50;91.60
46378;DHT22;32083;47.360;9.650;2023-07-20T00:34:00;22.50;91.40
46378;DHT22;32083;47.360;9.650;2023-07-20T00:36:26;22.50;91.30
46378;DHT22;32083;47.360;9.650;2023-07-20T00:38:51;22.50;91.90
46378;DHT22;32083;47.360;9.650;2023-07-20T00:41:17;22.50;91.40
46378;DHT22;32083;47.360;9.650;2023-07-20T00:43:43;22.40;91.20
46378;DHT22;32083;47.360;9.650;2023-07-20T00:46:09;22.40;91.20
46378;DHT22;32083;47.360;9.650;2023-07-20T00:48:35;22.30;91.40
46378;DHT22;32083;47.360;9.650;2023-07-20T00:51:02;22.30;91.40
46378;DHT22;32083;47.360;9.650;2023-07-20T00:53:28;22.30;91.40
46378;DHT22;32083;47.360;9.650;2023-07-20T00:55:54;22.30;91.60
46378;DHT22;32083;47.360;9.650;2023-07-20T00:58:20;22.30;92.10
46378;DHT22;32083;47.360;9.650;2023-07-20T01:00:46;22.30;91.80
46378;DHT22;32083;47.360;9.650;2023-07-20T01:03:12;22.30;91.90
46378;DHT22;32083;47.360;9.650;2023-07-20T01:09:22;22.30;91.70
46378;DHT22;32083;47.360;9.650;2023-07-20T01:12:07;22.30;91.90
46378;DHT22;32083;47.360;9.650;2023-07-20T01:14:34;22.20;91.10
46378;DHT22;32083;47.360;9.650;2023-07-20T01:17:01;22.20;91.30
46378;DHT22;32083;47.360;9.650;2023-07-20T01:19:26;22.30;91.00
46378;DHT22;32083;47.360;9.650;2023-07-20T01:30:46;22.20;91.90
46378;DHT22;32083;47.360;9.650;2023-07-20T01:33:17;22.10;92.20
46378;DHT22;32083;47.360;9.650;2023-07-20T01:35:48;22.20;92.00
46378;DHT22;32083;47.360;9.650;2023-07-20T01:38:15;22.10;92.20
46378;DHT22;32083;47.360;9.650;2023-07-20T01:40:41;22.10;91.90
46378;DHT22;32083;47.360;9.650;2023-07-20T01:43:07;22.10;92.20
46378;DHT22;32083;47.360;9.650;2023-07-20T01:45:33;22.10;92.30
46378;DHT22;32083;47.360;9.650;2023-07-20T01:47:58;22.10;92.00
46378;DHT22;32083;47.360;9.650;2023-07-20T01:50:24;22.10;92.10
46378;DHT22;32083;47.360;9.650;2023-07-20T01:52:50;22.10;92.00
46378;DHT22;32083;47.360;9.650;2023-07-20T01:55:16;22.00;91.80
46378;DHT22;32083;47.360;9.650;2023-07-20T01:57:41;22.00;91.90
46378;DHT22;32083;47.360;9.650;2023-07-20T02:00:07;22.00;92.00
46378;DHT22;32083;47.360;9.650;2023-07-20T02:02:35;21.90;91.80
46378;DHT22;32083;47.360;9.650;2023-07-20T02:05:00;22.00;91.60
46378;DHT22;32083;47.360;9.650;2023-07-20T02:07:28;22.00;91.50
46378;DHT22;32083;47.360;9.650;2023-07-20T02:09:53;21.90;91.80
46378;DHT22;32083;47.360;9.650;2023-07-20T02:12:19;22.00;91.70
46378;DHT22;32083;47.360;9.650;2023-07-20T02:14:45;21.90;91.40
46378;DHT22;32083;47.360;9.650;2023-07-20T02:17:10;22.00;91.50
46378;DHT22;32083;47.360;9.650;2023-07-20T02:19:37;22.00;91.30
46378;DHT22;32083;47.360;9.650;2023-07-20T02:22:03;22.00;91.10
46378;DHT22;32083;47.360;9.650;2023-07-20T02:24:28;21.90;91.20
46378;DHT22;32083;47.360;9.650;2023-07-20T02:26:54;21.90;91.20
46378;DHT22;32083;47.360;9.650;2023-07-20T02:29:20;21.90;91.10
46378;DHT22;32083;47.360;9.650;2023-07-20T02:31:45;21.90;91.00
46378;DHT22;32083;47.360;9.650;2023-07-20T02:34:11;21.90;91.00
46378;DHT22;32083;47.360;9.650;2023-07-20T02:36:37;21.80;90.90
46378;DHT22;32083;47.360;9.650;2023-07-20T02:39:03;21.80;91.10
46378;DHT22;32083;47.360;9.650;2023-07-20T02:41:30;21.80;91.00
46378;DHT22;32083;47.360;9.650;2023-07-20T02:43:56;21.80;90.90
46378;DHT22;32083;47.360;9.650;2023-07-20T02:46:22;21.80;90.80
46378;DHT22;32083;47.360;9.650;2023-07-20T02:48:47;21.80;90.90
46378;DHT22;32083;47.360;9.650;2023-07-20T02:51:13;21.80;90.90
46378;DHT22;32083;47.360;9.650;2023-07-20T02:53:39;21.80;91.00
46378;DHT22;32083;47.360;9.650;2023-07-20T02:56:05;21.80;91.00
46378;DHT22;32083;47.360;9.650;2023-07-20T02:58:30;21.70;91.10
46378;DHT22;32083;47.360;9.650;2023-07-20T03:00:56;21.70;91.20
46378;DHT22;32083;47.360;9.650;2023-07-20T03:03:22;21.70;91.10
46378;DHT22;32083;47.360;9.650;2023-07-20T03:05:47;21.70;91.20
46378;DHT22;32083;47.360;9.650;2023-07-20T03:08:20;21.70;91.30
46378;DHT22;32083;47.360;9.650;2023-07-20T03:10:45;21.70;91.30
46378;DHT22;32083;47.360;9.650;2023-07-20T03:13:11;21.70;91.70
46378;DHT22;32083;47.360;9.650;2023-07-20T03:15:38;21.70;92.00
46378;DHT22;32083;47.360;9.650;2023-07-20T03:18:03;21.70;92.20
46378;DHT22;32083;47.360;9.650;2023-07-20T03:20:30;21.70;92.30
46378;DHT22;32083;47.360;9.650;2023-07-20T03:22:56;21.70;92.30
46378;DHT22;32083;47.360;9.650;2023-07-20T03:25:22;21.80;92.00
46378;DHT22;32083;47.360;9.650;2023-07-20T03:27:48;21.70;91.90
46378;DHT22;32083;47.360;9.650;2023-07-20T03:30:14;21.70;91.90
46378;DHT22;32083;47.360;9.650;2023-07-20T03:32:40;21.70;91.90
46378;DHT22;32083;47.360;9.650;2023-07-20T03:35:06;21.70;91.90
46378;DHT22;32083;47.360;9.650;2023-07-20T03:37:32;21.60;92.10
46378;DHT22;32083;47.360;9.650;2023-07-20T03:40:00;21.60;92.20
46378;DHT22;32083;47.360;9.650;2023-07-20T03:42:26;21.50;92.10
46378;DHT22;32083;47.360;9.650;2023-07-20T03:44:51;21.50;92.20
46378;DHT22;32083;47.360;9.650;2023-07-20T03:47:17;21.60;92.40
46378;DHT22;32083;47.360;9.650;2023-07-20T03:49:43;21.50;92.20
46378;DHT22;32083;47.360;9.650;2023-07-20T03:52:08;21.50;92.20
46378;DHT22;32083;47.360;9.650;2023-07-20T03:54:34;21.50;92.30
46378;DHT22;32083;47.360;9.650;2023-07-20T03:57:00;21.50;92.40
46378;DHT22;32083;47.360;9.650;2023-07-20T03:59:26;21.50;92.40
46378;DHT22;32083;47.360;9.650;2023-07-20T04:01:52;21.50;92.60
46378;DHT22;32083;47.360;9.650;2023-07-20T04:04:17;21.40;92.90
46378;DHT22;32083;47.360;9.650;2023-07-20T04:06:43;21.30;92.80
46378;DHT22;32083;47.360;9.650;2023-07-20T04:09:11;21.20;92.80
46378;DHT22;32083;47.360;9.650;2023-07-20T04:11:36;21.20;92.80
46378;DHT22;32083;47.360;9.650;2023-07-20T04:14:02;21.10;92.90
46378;DHT22;32083;47.360;9.650;2023-07-20T04:16:28;21.10;92.90
46378;DHT22;32083;47.360;9.650;2023-07-20T04:18:57;21.10;92.80
46378;DHT22;32083;47.360;9.650;2023-07-20T04:21:25;21.10;93.00
46378;DHT22;32083;47.360;9.650;2023-07-20T04:23:51;21.10;92.40
46378;DHT22;32083;47.360;9.650;2023-07-20T04:26:16;21.00;92.40
46378;DHT22;32083;47.360;9.650;2023-07-20T04:28:42;21.10;92.60
46378;DHT22;32083;47.360;9.650;2023-07-20T04:31:15;21.10;92.50
46378;DHT22;32083;47.360;9.650;2023-07-20T04:33:41;21.10;92.40
46378;DHT22;32083;47.360;9.650;2023-07-20T04:36:07;21.00;92.50
46378;DHT22;32083;47.360;9.650;2023-07-20T04:38:33;21.00;92.20
46378;DHT22;32083;47.360;9.650;2023-07-20T04:40:59;21.00;92.20
46378;DHT22;32083;47.360;9.650;2023-07-20T04:43:25;20.90;92.30
46378;DHT22;32083;47.360;9.650;2023-07-20T04:45:51;20.90;92.20
46378;DHT22;32083;47.360;9.650;2023-07-20T04:48:17;20.90;92.30
46378;DHT22;32083;47.360;9.650;2023-07-20T04:50:44;20.90;92.30
46378;DHT22;32083;47.360;9.650;2023-07-20T04:53:14;20.90;92.20
46378;DHT22;32083;47.360;9.650;2023-07-20T04:55:40;20.90;92.10
46378;DHT22;32083;47.360;9.650;2023-07-20T04:58:06;20.90;92.00
46378;DHT22;32083;47.360;9.650;2023-07-20T05:00:37;20.90;92.00
46378;DHT22;32083;47.360;9.650;2023-07-20T05:03:03;20.90;91.80
46378;DHT22;32083;47.360;9.650;2023-07-20T05:05:30;21.00;91.70
46378;DHT22;32083;47.360;9.650;2023-07-20T05:07:57;20.90;92.10
46378;DHT22;32083;47.360;9.650;2023-07-20T05:10:23;20.90;92.20
46378;DHT22;32083;47.360;9.650;2023-07-20T05:12:49;21.00;92.20
46378;DHT22;32083;47.360;9.650;2023-07-20T05:15:15;21.00;92.30
46378;DHT22;32083;47.360;9.650;2023-07-20T05:17:41;20.90;92.70
46378;DHT22;32083;47.360;9.650;2023-07-20T05:20:07;20.90;92.50
46378;DHT22;32083;47.360;9.650;2023-07-20T05:22:35;20.90;92.60
46378;DHT22;32083;47.360;9.650;2023-07-20T05:25:08;20.90;92.60
46378;DHT22;32083;47.360;9.650;2023-07-20T05:27:38;20.90;92.40
46378;DHT22;32083;47.360;9.650;2023-07-20T05:30:04;20.80;92.20
46378;DHT22;32083;47.360;9.650;2023-07-20T05:32:30;20.80;92.40
46378;DHT22;32083;47.360;9.650;2023-07-20T05:35:02;20.80;92.50
46378;DHT22;32083;47.360;9.650;2023-07-20T05:37:35;20.80;92.70
46378;DHT22;32083;47.360;9.650;2023-07-20T05:40:05;20.80;92.90
46378;DHT22;32083;47.360;9.650;2023-07-20T05:42:54;20.80;92.60
46378;DHT22;32083;47.360;9.650;2023-07-20T05:45:41;20.70;92.70
46378;DHT22;32083;47.360;9.650;2023-07-20T05:48:10;20.70;93.00
46378;DHT22;32083;47.360;9.650;2023-07-20T05:50:41;20.70;92.90
46378;DHT22;32083;47.360;9.650;2023-07-20T05:53:07;20.70;92.60
46378;DHT22;32083;47.360;9.650;2023-07-20T05:55:38;20.70;92.60
46378;DHT22;32083;47.360;9.650;2023-07-20T05:58:07;20.70;92.80
46378;DHT22;32083;47.360;9.650;2023-07-20T06:01:09;20.70;92.90
46378;DHT22;32083;47.360;9.650;2023-07-20T06:03:45;20.70;93.20
46378;DHT22;32083;47.360;9.650;2023-07-20T06:06:29;20.70;93.00
46378;DHT22;32083;47.360;9.650;2023-07-20T06:09:14;20.80;93.20
46378;DHT22;32083;47.360;9.650;2023-07-20T06:12:27;20.90;93.40
46378;DHT22;32083;47.360;9.650;2023-07-20T06:15:28;20.90;93.20
46378;DHT22;32083;47.360;9.650;2023-07-20T06:18:03;21.00;93.30
46378;DHT22;32083;47.360;9.650;2023-07-20T06:20:32;21.00;93.30
46378;DHT22;32083;47.360;9.650;2023-07-20T06:23:01;21.00;93.00
46378;DHT22;32083;47.360;9.650;2023-07-20T06:25:33;20.90;93.10
46378;DHT22;32083;47.360;9.650;2023-07-20T06:28:18;20.90;93.20
46378;DHT22;32083;47.360;9.650;2023-07-20T06:31:06;20.80;93.10
46378;DHT22;32083;47.360;9.650;2023-07-20T06:33:49;20.90;93.80
46378;DHT22;32083;47.360;9.650;2023-07-20T06:37:15;20.90;93.40
46378;DHT22;32083;47.360;9.650;2023-07-20T06:40:11;20.90;93.70
46378;DHT22;32083;47.360;9.650;2023-07-20T06:43:26;20.70;94.30
46378;DHT22;32083;47.360;9.650;2023-07-20T06:46:35;20.80;93.90
46378;DHT22;32083;47.360;9.650;2023-07-20T06:49:01;20.80;95.10
46378;DHT22;32083;47.360;9.650;2023-07-20T06:51:27;20.70;94.40
46378;DHT22;32083;47.360;9.650;2023-07-20T06:53:53;20.80;94.20
46378;DHT22;32083;47.360;9.650;2023-07-20T06:56:19;20.90;93.60
46378;DHT22;32083;47.360;9.650;2023-07-20T06:58:45;20.90;93.50
46378;DHT22;32083;47.360;9.650;2023-07-20T07:01:11;20.90;93.50
46378;DHT22;32083;47.360;9.650;2023-07-20T07:03:37;21.00;93.70
46378;DHT22;32083;47.360;9.650;2023-07-20T07:06:03;21.00;93.60
46378;DHT22;32083;47.360;9.650;2023-07-20T07:08:29;21.00;93.50
46378;DHT22;32083;47.360;9.650;2023-07-20T07:10:55;21.10;93.00
46378;DHT22;32083;47.360;9.650;2023-07-20T07:13:21;21.20;92.50
46378;DHT22;32083;47.360;9.650;2023-07-20T07:15:47;21.30;91.80
46378;DHT22;32083;47.360;9.650;2023-07-20T07:18:13;21.40;91.60
46378;DHT22;32083;47.360;9.650;2023-07-20T07:20:39;21.40;91.90
46378;DHT22;32083;47.360;9.650;2023-07-20T07:23:05;21.70;91.70
46378;DHT22;32083;47.360;9.650;2023-07-20T07:25:30;22.00;90.80
46378;DHT22;32083;47.360;9.650;2023-07-20T07:27:57;21.80;90.90
46378;DHT22;32083;47.360;9.650;2023-07-20T07:30:23;21.90;91.10
46378;DHT22;32083;47.360;9.650;2023-07-20T07:32:49;22.20;90.90
46378;DHT22;32083;47.360;9.650;2023-07-20T07:35:15;22.30;90.90
46378;DHT22;32083;47.360;9.650;2023-07-20T07:37:41;22.50;91.00
46378;DHT22;32083;47.360;9.650;2023-07-20T07:40:07;22.50;89.80
46378;DHT22;32083;47.360;9.650;2023-07-20T07:42:34;22.40;86.20
46378;DHT22;32083;47.360;9.650;2023-07-20T07:45:00;22.60;88.20
46378;DHT22;32083;47.360;9.650;2023-07-20T07:47:26;22.80;86.30
46378;DHT22;32083;47.360;9.650;2023-07-20T07:49:52;22.90;87.00
46378;DHT22;32083;47.360;9.650;2023-07-20T07:52:17;22.80;84.70
46378;DHT22;32083;47.360;9.650;2023-07-20T07:54:43;22.90;85.90
46378;DHT22;32083;47.360;9.650;2023-07-20T07:57:09;23.10;87.00
46378;DHT22;32083;47.360;9.650;2023-07-20T07:59:35;23.20;87.50
46378;DHT22;32083;47.360;9.650;2023-07-20T08:02:04;23.30;88.00
46378;DHT22;32083;47.360;9.650;2023-07-20T08:04:31;23.30;85.40
46378;DHT22;32083;47.360;9.650;2023-07-20T08:06:58;23.40;88.20
46378;DHT22;32083;47.360;9.650;2023-07-20T08:09:25;23.50;85.40
46378;DHT22;32083;47.360;9.650;2023-07-20T08:11:51;23.30;86.20
46378;DHT22;32083;47.360;9.650;2023-07-20T08:14:17;23.10;88.20
46378;DHT22;32083;47.360;9.650;2023-07-20T08:16:43;23.00;86.00
46378;DHT22;32083;47.360;9.650;2023-07-20T08:19:09;22.90;87.30
46378;DHT22;32083;47.360;9.650;2023-07-20T08:21:35;23.20;87.30
46378;DHT22;32083;47.360;9.650;2023-07-20T08:24:01;23.30;87.80
46378;DHT22;32083;47.360;9.650;2023-07-20T08:26:27;23.30;86.40
46378;DHT22;32083;47.360;9.650;2023-07-20T08:28:53;23.30;84.60
46378;DHT22;32083;47.360;9.650;2023-07-20T08:31:19;23.30;86.80
46378;DHT22;32083;47.360;9.650;2023-07-20T08:33:46;23.50;86.30
46378;DHT22;32083;47.360;9.650;2023-07-20T08:36:11;23.50;87.00
46378;DHT22;32083;47.360;9.650;2023-07-20T08:38:37;23.60;87.80
46378;DHT22;32083;47.360;9.650;2023-07-20T08:41:03;23.70;87.20
46378;DHT22;32083;47.360;9.650;2023-07-20T08:43:30;23.70;85.50
46378;DHT22;32083;47.360;9.650;2023-07-20T08:45:57;23.80;87.10
46378;DHT22;32083;47.360;9.650;2023-07-20T08:48:24;23.80;86.90
46378;DHT22;32083;47.360;9.650;2023-07-20T08:50:51;23.80;85.90
46378;DHT22;32083;47.360;9.650;2023-07-20T08:53:21;23.80;86.20
46378;DHT22;32083;47.360;9.650;2023-07-20T08:55:50;23.70;87.50
46378;DHT22;32083;47.360;9.650;2023-07-20T08:58:17;23.80;87.10
46378;DHT22;32083;47.360;9.650;2023-07-20T09:00:44;23.70;87.60
46378;DHT22;32083;47.360;9.650;2023-07-20T09:03:11;23.80;87.20
46378;DHT22;32083;47.360;9.650;2023-07-20T09:05:37;23.90;86.40
46378;DHT22;32083;47.360;9.650;2023-07-20T09:08:05;23.80;86.10
46378;DHT22;32083;47.360;9.650;2023-07-20T09:10:31;23.80;85.80
46378;DHT22;32083;47.360;9.650;2023-07-20T09:12:57;23.80;86.30
46378;DHT22;32083;47.360;9.650;2023-07-20T09:15:23;23.60;85.90
46378;DHT22;32083;47.360;9.650;2023-07-20T09:17:50;23.70;87.10
46378;DHT22;32083;47.360;9.650;2023-07-20T09:20:17;23.70;86.10
46378;DHT22;32083;47.360;9.650;2023-07-20T09:22:44;23.70;86.20
46378;DHT22;32083;47.360;9.650;2023-07-20T09:25:19;23.90;88.70
46378;DHT22;32083;47.360;9.650;2023-07-20T09:27:47;23.90;87.80
46378;DHT22;32083;47.360;9.650;2023-07-20T09:30:15;23.80;87.10
46378;DHT22;32083;47.360;9.650;2023-07-20T09:32:46;23.80;85.40
46378;DHT22;32083;47.360;9.650;2023-07-20T09:35:14;23.80;86.90
46378;DHT22;32083;47.360;9.650;2023-07-20T09:37:50;23.80;87.10
46378;DHT22;32083;47.360;9.650;2023-07-20T09:40:21;23.90;86.60
46378;DHT22;32083;47.360;9.650;2023-07-20T09:42:47;24.00;86.00
46378;DHT22;32083;47.360;9.650;2023-07-20T09:45:14;23.90;84.30
46378;DHT22;32083;47.360;9.650;2023-07-20T10:53:25;24.50;84.00
46378;DHT22;32083;47.360;9.650;2023-07-20T10:56:06;24.50;83.60
46378;DHT22;32083;47.360;9.650;2023-07-20T10:58:34;24.30;81.80
46378;DHT22;32083;47.360;9.650;2023-07-20T11:01:04;24.50;84.80
46378;DHT22;32083;47.360;9.650;2023-07-20T11:03:39;24.60;84.60
46378;DHT22;32083;47.360;9.650;2023-07-20T11:09:10;24.60;82.40
46378;DHT22;32083;47.360;9.650;2023-07-20T11:11:48;24.60;83.00
46378;DHT22;32083;47.360;9.650;2023-07-20T11:15:12;24.70;82.70
46378;DHT22;32083;47.360;9.650;2023-07-20T11:18:20;24.70;83.90
46378;DHT22;32083;47.360;9.650;2023-07-20T11:23:16;24.70;84.50
46378;DHT22;32083;47.360;9.650;2023-07-20T11:25:41;24.80;83.60
46378;DHT22;32083;47.360;9.650;2023-07-20T11:28:08;24.80;82.90
46378;DHT22;32083;47.360;9.650;2023-07-20T11:30:37;24.80;81.70
46378;DHT22;32083;47.360;9.650;2023-07-20T11:33:04;24.70;81.40
46378;DHT22;32083;47.360;9.650;2023-07-20T11:35:34;24.60;82.10
46378;DHT22;32083;47.360;9.650;2023-07-20T11:38:03;24.60;80.90
46378;DHT22;32083;47.360;9.650;2023-07-20T11:40:29;24.60;82.10
46378;DHT22;32083;47.360;9.650;2023-07-20T11:42:54;24.50;81.70
46378;DHT22;32083;47.360;9.650;2023-07-20T11:45:20;24.60;81.70
46378;DHT22;32083;47.360;9.650;2023-07-20T11:47:46;24.60;80.50
46378;DHT22;32083;47.360;9.650;2023-07-20T11:50:12;24.60;81.60
46378;DHT22;32083;47.360;9.650;2023-07-20T11:52:40;24.80;83.30
46378;DHT22;32083;47.360;9.650;2023-07-20T11:55:06;24.90;82.60
46378;DHT22;32083;47.360;9.650;2023-07-20T11:57:32;24.80;80.70
46378;DHT22;32083;47.360;9.650;2023-07-20T12:00:02;24.80;82.20
46378;DHT22;32083;47.360;9.650;2023-07-20T12:02:31;24.90;81.40
46378;DHT22;32083;47.360;9.650;2023-07-20T12:04:57;24.80;80.90
46378;DHT22;32083;47.360;9.650;2023-07-20T12:07:25;25.00;81.90
46378;DHT22;32083;47.360;9.650;2023-07-20T12:12:43;25.20;81.60
46378;DHT22;32083;47.360;9.650;2023-07-20T12:15:26;25.20;80.90
46378;DHT22;32083;47.360;9.650;2023-07-20T12:17:52;25.20;82.50
46378;DHT22;32083;47.360;9.650;2023-07-20T12:23:11;25.40;81.70
46378;DHT22;32083;47.360;9.650;2023-07-20T12:25:44;25.40;80.80
46378;DHT22;32083;47.360;9.650;2023-07-20T12:28:12;25.50;79.60
46378;DHT22;32083;47.360;9.650;2023-07-20T12:30:43;25.40;79.20
46378;DHT22;32083;47.360;9.650;2023-07-20T12:33:45;25.40;81.30
46378;DHT22;32083;47.360;9.650;2023-07-20T12:36:27;25.60;80.30
46378;DHT22;32083;47.360;9.650;2023-07-20T12:39:02;25.60;79.10
46378;DHT22;32083;47.360;9.650;2023-07-20T12:41:30;25.70;80.90
46378;DHT22;32083;47.360;9.650;2023-07-20T12:43:56;25.70;79.40
46378;DHT22;32083;47.360;9.650;2023-07-20T12:46:23;25.80;79.10
46378;DHT22;32083;47.360;9.650;2023-07-20T12:48:50;25.90;80.50
46378;DHT22;32083;47.360;9.650;2023-07-20T12:51:15;25.60;78.00
46378;DHT22;32083;47.360;9.650;2023-07-20T12:53:46;25.80;79.60
46378;DHT22;32083;47.360;9.650;2023-07-20T12:56:12;25.80;79.10
46378;DHT22;32083;47.360;9.650;2023-07-20T12:58:40;25.90;79.60
46378;DHT22;32083;47.360;9.650;2023-07-20T13:01:06;25.70;79.60
46378;DHT22;32083;47.360;9.650;2023-07-20T13:03:31;25.90;79.30
46378;DHT22;32083;47.360;9.650;2023-07-20T13:05:57;25.90;79.50
46378;DHT22;32083;47.360;9.650;2023-07-20T13:08:23;25.90;78.60
46378;DHT22;32083;47.360;9.650;2023-07-20T13:10:50;26.00;79.20
46378;DHT22;32083;47.360;9.650;2023-07-20T13:13:17;26.10;81.00
46378;DHT22;32083;47.360;9.650;2023-07-20T13:15:44;26.10;79.00
46378;DHT22;32083;47.360;9.650;2023-07-20T13:18:09;26.00;78.60
46378;DHT22;32083;47.360;9.650;2023-07-20T13:20:35;26.30;79.90
46378;DHT22;32083;47.360;9.650;2023-07-20T13:23:01;26.40;79.80
46378;DHT22;32083;47.360;9.650;2023-07-20T13:25:27;26.40;78.80
46378;DHT22;32083;47.360;9.650;2023-07-20T13:27:53;26.40;78.10
46378;DHT22;32083;47.360;9.650;2023-07-20T13:30:24;26.40;79.80
46378;DHT22;32083;47.360;9.650;2023-07-20T13:32:55;26.50;77.60
46378;DHT22;32083;47.360;9.650;2023-07-20T13:35:32;26.50;78.00
46378;DHT22;32083;47.360;9.650;2023-07-20T13:37:57;26.40;78.30
46378;DHT22;32083;47.360;9.650;2023-07-20T13:40:23;26.40;78.90
46378;DHT22;32083;47.360;9.650;2023-07-20T13:42:53;26.20;78.40
46378;DHT22;32083;47.360;9.650;2023-07-20T13:45:19;26.50;79.80
46378;DHT22;32083;47.360;9.650;2023-07-20T13:47:45;26.60;79.00
46378;DHT22;32083;47.360;9.650;2023-07-20T13:50:11;26.60;78.10
46378;DHT22;32083;47.360;9.650;2023-07-20T13:52:37;26.70;78.90
46378;DHT22;32083;47.360;9.650;2023-07-20T13:55:03;26.50;79.10
46378;DHT22;32083;47.360;9.650;2023-07-20T13:57:29;26.50;78.40
46378;DHT22;32083;47.360;9.650;2023-07-20T13:59:55;26.40;77.60
46378;DHT22;32083;47.360;9.650;2023-07-20T14:02:21;26.40;78.40
46378;DHT22;32083;47.360;9.650;2023-07-20T14:04:46;26.30;77.70
46378;DHT22;32083;47.360;9.650;2023-07-20T14:07:13;26.50;78.70
46378;DHT22;32083;47.360;9.650;2023-07-20T14:09:39;26.50;79.00
46378;DHT22;32083;47.360;9.650;2023-07-20T14:12:05;26.40;77.80
46378;DHT22;32083;47.360;9.650;2023-07-20T14:14:31;26.50;77.40
46378;DHT22;32083;47.360;9.650;2023-07-20T14:16:57;26.50;77.70
46378;DHT22;32083;47.360;9.650;2023-07-20T14:19:23;26.50;77.80
46378;DHT22;32083;47.360;9.650;2023-07-20T14:21:49;26.50;78.30
46378;DHT22;32083;47.360;9.650;2023-07-20T14:24:15;26.70;81.50
46378;DHT22;32083;47.360;9.650;2023-07-20T14:26:41;26.80;79.60
46378;DHT22;32083;47.360;9.650;2023-07-20T14:29:07;26.60;78.60
46378;DHT22;32083;47.360;9.650;2023-07-20T14:31:32;26.40;77.00
46378;DHT22;32083;47.360;9.650;2023-07-20T14:33:58;26.60;79.00
46378;DHT22;32083;47.360;9.650;2023-07-20T14:36:24;26.70;78.70
46378;DHT22;32083;47.360;9.650;2023-07-20T14:38:49;26.70;79.00
46378;DHT22;32083;47.360;9.650;2023-07-20T14:41:15;26.70;79.00
46378;DHT22;32083;47.360;9.650;2023-07-20T14:43:41;26.60;77.90
46378;DHT22;32083;47.360;9.650;2023-07-20T14:46:07;26.50;77.60
46378;DHT22;32083;47.360;9.650;2023-07-20T14:48:32;26.50;79.30
46378;DHT22;32083;47.360;9.650;2023-07-20T14:50:58;26.50;78.60
46378;DHT22;32083;47.360;9.650;2023-07-20T14:53:25;26.60;78.60
46378;DHT22;32083;47.360;9.650;2023-07-20T14:55:58;26.40;78.40
46378;DHT22;32083;47.360;9.650;2023-07-20T14:58:24;26.50;79.20
46378;DHT22;32083;47.360;9.650;2023-07-20T15:00:50;26.50;77.30
46378;DHT22;32083;47.360;9.650;2023-07-20T15:03:15;26.50;78.50
46378;DHT22;32083;47.360;9.650;2023-07-20T15:05:41;26.50;78.30
46378;DHT22;32083;47.360;9.650;2023-07-20T15:08:08;26.50;78.70
46378;DHT22;32083;47.360;9.650;2023-07-20T15:10:34;26.40;78.70
46378;DHT22;32083;47.360;9.650;2023-07-20T15:13:00;26.50;79.00
46378;DHT22;32083;47.360;9.650;2023-07-20T15:15:26;26.40;79.30
46378;DHT22;32083;47.360;9.650;2023-07-20T15:17:52;26.40;78.20
46378;DHT22;32083;47.360;9.650;2023-07-20T15:20:19;26.50;78.50
46378;DHT22;32083;47.360;9.650;2023-07-20T15:22:45;26.60;79.60
46378;DHT22;32083;47.360;9.650;2023-07-20T15:25:11;26.50;77.90
46378;DHT22;32083;47.360;9.650;2023-07-20T15:27:40;26.40;77.50
46378;DHT22;32083;47.360;9.650;2023-07-20T15:30:07;26.30;77.60
46378;DHT22;32083;47.360;9.650;2023-07-20T15:32:33;26.30;78.20
46378;DHT22;32083;47.360;9.650;2023-07-20T15:34:59;26.30;77.30
46378;DHT22;32083;47.360;9.650;2023-07-20T15:37:25;26.40;78.60
46378;DHT22;32083;47.360;9.650;2023-07-20T15:39:50;26.40;78.50
46378;DHT22;32083;47.360;9.650;2023-07-20T15:42:16;26.40;78.80
46378;DHT22;32083;47.360;9.650;2023-07-20T15:44:42;26.30;78.60
46378;DHT22;32083;47.360;9.650;2023-07-20T15:47:08;26.30;78.20
46378;DHT22;32083;47.360;9.650;2023-07-20T15:49:34;26.10;78.60
46378;DHT22;32083;47.360;9.650;2023-07-20T15:52:00;26.30;78.70
46378;DHT22;32083;47.360;9.650;2023-07-20T15:54:25;26.30;77.70
46378;DHT22;32083;47.360;9.650;2023-07-20T15:56:51;26.30;77.00
46378;DHT22;32083;47.360;9.650;2023-07-20T15:59:17;26.40;78.30
46378;DHT22;32083;47.360;9.650;2023-07-20T16:01:43;26.50;79.20
46378;DHT22;32083;47.360;9.650;2023-07-20T16:04:11;26.50;78.60
46378;DHT22;32083;47.360;9.650;2023-07-20T16:06:36;26.40;78.00
46378;DHT22;32083;47.360;9.650;2023-07-20T16:09:03;26.40;78.30
46378;DHT22;32083;47.360;9.650;2023-07-20T16:11:33;26.30;78.90
46378;DHT22;32083;47.360;9.650;2023-07-20T16:13:59;26.30;78.20
46378;DHT22;32083;47.360;9.650;2023-07-20T16:16:25;26.10;76.70
46378;DHT22;32083;47.360;9.650;2023-07-20T16:18:51;26.10;77.40
46378;DHT22;32083;47.360;9.650;2023-07-20T16:21:19;26.10;77.70
46378;DHT22;32083;47.360;9.650;2023-07-20T16:23:47;26.10;78.70
46378;DHT22;32083;47.360;9.650;2023-07-20T16:26:13;26.10;78.70
46378;DHT22;32083;47.360;9.650;2023-07-20T16:28:39;26.00;77.50
46378;DHT22;32083;47.360;9.650;2023-07-20T16:31:10;25.90;77.20
46378;DHT22;32083;47.360;9.650;2023-07-20T16:33:38;25.70;77.00
46378;DHT22;32083;47.360;9.650;2023-07-20T16:36:08;25.80;77.10
46378;DHT22;32083;47.360;9.650;2023-07-20T16:38:35;25.80;77.30
46378;DHT22;32083;47.360;9.650;2023-07-20T16:41:01;25.90;76.70
46378;DHT22;32083;47.360;9.650;2023-07-20T16:43:27;25.80;77.10
46378;DHT22;32083;47.360;9.650;2023-07-20T16:45:59;25.80;76.80
46378;DHT22;32083;47.360;9.650;2023-07-20T16:48:25;25.80;77.40
46378;DHT22;32083;47.360;9.650;2023-07-20T16:50:51;25.70;75.90
46378;DHT22;32083;47.360;9.650;2023-07-20T16:53:17;25.80;77.30
46378;DHT22;32083;47.360;9.650;2023-07-20T16:55:43;25.70;75.90
46378;DHT22;32083;47.360;9.650;2023-07-20T16:58:11;25.70;76.80
46378;DHT22;32083;47.360;9.650;2023-07-20T17:00:36;25.70;76.60
46378;DHT22;32083;47.360;9.650;2023-07-20T17:03:02;25.80;77.70
46378;DHT22;32083;47.360;9.650;2023-07-20T17:05:29;25.60;76.90
46378;DHT22;32083;47.360;9.650;2023-07-20T17:07:55;25.70;77.30